sensor_id;sensor_type;location;lat;lon;timestamp;P1;durP1;ratioP1;P2;durP2;ratioP2
57303;SDS011;43150;50.986;18.208;2022-12-29T00:01:42;9.30;;;4.80;;
57303;SDS011;43150;50.986;18.208;2022-12-29T00:04:09;8.00;;;4.50;;
57303;SDS011;43150;50.986;18.208;2022-12-29T00:06:35;8.60;;;5.00;;
57303;SDS011;43150;50.986;18.208;2022-12-29T00:09:01;10.00;;;5.10;;
57303;SDS011;43150;50.986;18.208;2022-12-29T00:11:26;8.30;;;4.70;;
57303;SDS011;43150;50.986;18.208;2022-12-29T00:13:53;8.30;;;5.70;;
57303;SDS011;43150;50.986;18.208;2022-12-29T00:16:37;9.70;;;5.80;;
57303;SDS011;43150;50.986;18.208;2022-12-29T00:19:04;8.00;;;5.70;;
57303;SDS011;43150;50.986;18.208;2022-12-29T00:21:30;8.20;;;4.70;;
57303;SDS011;43150;50.986;18.208;2022-12-29T00:24:15;6.90;;;4.20;;
57303;SDS011;43150;50.986;18.208;2022-12-29T00:29:48;11.00;;;4.80;;
57303;SDS011;43150;50.986;18.208;2022-12-29T00:32:32;6.80;;;4.70;;
57303;SDS011;43150;50.986;18.208;2022-12-29T00:35:23;9.20;;;4.90;;
57303;SDS011;43150;50.986;18.208;2022-12-29T00:37:49;9.30;;;4.90;;
57303;SDS011;43150;50.986;18.208;2022-12-29T00:40:34;10.10;;;5.20;;
57303;SDS011;43150;50.986;18.208;2022-12-29T00:43:18;11.20;;;5.70;;
57303;SDS011;43150;50.986;18.208;2022-12-29T00:46:03;7.90;;;4.20;;
57303;SDS011;43150;50.986;18.208;2022-12-29T00:48:28;10.20;;;4.40;;
57303;SDS011;43150;50.986;18.208;2022-12-29T00:51:12;9.70;;;4.60;;
57303;SDS011;43150;50.986;18.208;2022-12-29T00:53:38;10.10;;;5.10;;
57303;SDS011;43150;50.986;18.208;2022-12-29T00:56:03;8.80;;;5.20;;
57303;SDS011;43150;50.986;18.208;2022-12-29T00:58:29;8.70;;;5.10;;
57303;SDS011;43150;50.986;18.208;2022-12-29T01:01:02;8.30;;;4.70;;
57303;SDS011;43150;50.986;18.208;2022-12-29T01:05:54;7.80;;;4.70;;
57303;SDS011;43150;50.986;18.208;2022-12-29T01:08:20;8.70;;;5.00;;
57303;SDS011;43150;50.986;18.208;2022-12-29T01:11:01;8.70;;;4.30;;
57303;SDS011;43150;50.986;18.208;2022-12-29T01:13:27;11.20;;;4.80;;
57303;SDS011;43150;50.986;18.208;2022-12-29T01:15:52;7.40;;;4.50;;
57303;SDS011;43150;50.986;18.208;2022-12-29T01:18:18;8.10;;;4.60;;
57303;SDS011;43150;50.986;18.208;2022-12-29T01:20:44;7.80;;;4.80;;
57303;SDS011;43150;50.986;18.208;2022-12-29T01:23:10;8.10;;;4.50;;
57303;SDS011;43150;50.986;18.208;2022-12-29T01:25:35;9.40;;;5.00;;
57303;SDS011;43150;50.986;18.208;2022-12-29T01:28:00;7.80;;;4.20;;
57303;SDS011;43150;50.986;18.208;2022-12-29T01:30:26;7.30;;;4.50;;
57303;SDS011;43150;50.986;18.208;2022-12-29T01:32:51;7.80;;;4.60;;
57303;SDS011;43150;50.986;18.208;2022-12-29T01:35:17;8.70;;;4.90;;
57303;SDS011;43150;50.986;18.208;2022-12-29T01:37:43;8.10;;;4.30;;
57303;SDS011;43150;50.986;18.208;2022-12-29T01:40:08;9.30;;;4.50;;
57303;SDS011;43150;50.986;18.208;2022-12-29T01:42:34;9.10;;;4.70;;
57303;SDS011;43150;50.986;18.208;2022-12-29T01:45:01;24.80;;;9.30;;
57303;SDS011;43150;50.986;18.208;2022-12-29T01:47:41;36.80;;;12.60;;
57303;SDS011;43150;50.986;18.208;2022-12-29T01:50:21;57.40;;;19.50;;
57303;SDS011;43150;50.986;18.208;2022-12-29T01:55:32;22.40;;;11.80;;
57303;SDS011;43150;50.986;18.208;2022-12-29T01:57:59;15.40;;;9.20;;
57303;SDS011;43150;50.986;18.208;2022-12-29T02:00:29;12.10;;;6.60;;
57303;SDS011;43150;50.986;18.208;2022-12-29T02:02:54;8.40;;;5.00;;
57303;SDS011;43150;50.986;18.208;2022-12-29T02:07:52;9.20;;;4.90;;
57303;SDS011;43150;50.986;18.208;2022-12-29T02:10:21;7.10;;;4.60;;
57303;SDS011;43150;50.986;18.208;2022-12-29T02:12:51;8.80;;;5.00;;
57303;SDS011;43150;50.986;18.208;2022-12-29T02:15:17;12.80;;;5.60;;
57303;SDS011;43150;50.986;18.208;2022-12-29T02:20:42;77.70;;;19.10;;
57303;SDS011;43150;50.986;18.208;2022-12-29T02:41:42;8.30;;;3.80;;
57303;SDS011;43150;50.986;18.208;2022-12-29T02:44:20;5.90;;;3.80;;
57303;SDS011;43150;50.986;18.208;2022-12-29T02:49:17;5.70;;;4.30;;
57303;SDS011;43150;50.986;18.208;2022-12-29T02:51:52;8.00;;;3.90;;
57303;SDS011;43150;50.986;18.208;2022-12-29T02:54:20;7.30;;;4.00;;
57303;SDS011;43150;50.986;18.208;2022-12-29T02:59:36;8.50;;;4.70;;
57303;SDS011;43150;50.986;18.208;2022-12-29T03:10:16;7.50;;;4.20;;
57303;SDS011;43150;50.986;18.208;2022-12-29T03:15:34;11.90;;;4.10;;
57303;SDS011;43150;50.986;18.208;2022-12-29T03:23:39;8.10;;;4.70;;
57303;SDS011;43150;50.986;18.208;2022-12-29T03:26:08;7.60;;;4.60;;
57303;SDS011;43150;50.986;18.208;2022-12-29T03:28:55;7.50;;;3.90;;
57303;SDS011;43150;50.986;18.208;2022-12-29T03:31:22;7.50;;;4.40;;
57303;SDS011;43150;50.986;18.208;2022-12-29T03:33:48;6.60;;;3.70;;
57303;SDS011;43150;50.986;18.208;2022-12-29T03:36:20;8.70;;;5.10;;
57303;SDS011;43150;50.986;18.208;2022-12-29T03:38:59;7.90;;;4.50;;
57303;SDS011;43150;50.986;18.208;2022-12-29T03:41:28;20.10;;;4.50;;
57303;SDS011;43150;50.986;18.208;2022-12-29T03:43:59;8.50;;;5.10;;
57303;SDS011;43150;50.986;18.208;2022-12-29T03:46:25;10.40;;;5.40;;
57303;SDS011;43150;50.986;18.208;2022-12-29T03:48:50;6.60;;;3.90;;
57303;SDS011;43150;50.986;18.208;2022-12-29T03:51:18;10.10;;;5.30;;
57303;SDS011;43150;50.986;18.208;2022-12-29T03:53:44;14.60;;;8.50;;
57303;SDS011;43150;50.986;18.208;2022-12-29T03:56:09;10.90;;;6.90;;
57303;SDS011;43150;50.986;18.208;2022-12-29T03:58:35;11.70;;;6.50;;
57303;SDS011;43150;50.986;18.208;2022-12-29T04:01:00;8.30;;;5.10;;
57303;SDS011;43150;50.986;18.208;2022-12-29T04:03:26;6.50;;;4.40;;
57303;SDS011;43150;50.986;18.208;2022-12-29T04:05:51;8.70;;;5.00;;
57303;SDS011;43150;50.986;18.208;2022-12-29T04:08:17;6.70;;;4.40;;
57303;SDS011;43150;50.986;18.208;2022-12-29T04:10:42;7.10;;;4.90;;
57303;SDS011;43150;50.986;18.208;2022-12-29T04:13:08;16.30;;;7.80;;
57303;SDS011;43150;50.986;18.208;2022-12-29T04:15:34;16.60;;;8.00;;
57303;SDS011;43150;50.986;18.208;2022-12-29T04:17:59;15.30;;;8.40;;
57303;SDS011;43150;50.986;18.208;2022-12-29T04:20:25;13.40;;;7.70;;
57303;SDS011;43150;50.986;18.208;2022-12-29T04:23:14;9.90;;;5.80;;
57303;SDS011;43150;50.986;18.208;2022-12-29T04:25:39;6.60;;;4.00;;
57303;SDS011;43150;50.986;18.208;2022-12-29T04:28:05;8.90;;;5.70;;
57303;SDS011;43150;50.986;18.208;2022-12-29T04:30:33;13.00;;;7.30;;
57303;SDS011;43150;50.986;18.208;2022-12-29T04:32:58;12.80;;;6.70;;
57303;SDS011;43150;50.986;18.208;2022-12-29T04:35:28;10.00;;;6.10;;
57303;SDS011;43150;50.986;18.208;2022-12-29T04:37:53;11.60;;;5.20;;
57303;SDS011;43150;50.986;18.208;2022-12-29T04:40:19;12.00;;;6.90;;
57303;SDS011;43150;50.986;18.208;2022-12-29T04:42:45;10.10;;;6.50;;
57303;SDS011;43150;50.986;18.208;2022-12-29T04:45:10;9.30;;;5.80;;
57303;SDS011;43150;50.986;18.208;2022-12-29T04:47:36;9.90;;;6.90;;
57303;SDS011;43150;50.986;18.208;2022-12-29T04:50:02;10.50;;;5.80;;
57303;SDS011;43150;50.986;18.208;2022-12-29T04:52:27;9.50;;;5.60;;
57303;SDS011;43150;50.986;18.208;2022-12-29T04:54:53;8.00;;;5.10;;
57303;SDS011;43150;50.986;18.208;2022-12-29T04:57:19;7.30;;;4.30;;
57303;SDS011;43150;50.986;18.208;2022-12-29T04:59:44;7.30;;;5.30;;
57303;SDS011;43150;50.986;18.208;2022-12-29T05:02:10;9.50;;;5.00;;
57303;SDS011;43150;50.986;18.208;2022-12-29T05:04:35;7.00;;;4.50;;
57303;SDS011;43150;50.986;18.208;2022-12-29T05:07:01;8.80;;;4.50;;
57303;SDS011;43150;50.986;18.208;2022-12-29T05:09:27;6.30;;;4.10;;
57303;SDS011;43150;50.986;18.208;2022-12-29T05:11:52;6.90;;;4.00;;
57303;SDS011;43150;50.986;18.208;2022-12-29T05:14:18;8.90;;;4.70;;
57303;SDS011;43150;50.986;18.208;2022-12-29T05:16:43;7.40;;;5.00;;
57303;SDS011;43150;50.986;18.208;2022-12-29T05:19:09;11.40;;;5.80;;
57303;SDS011;43150;50.986;18.208;2022-12-29T05:21:34;13.30;;;7.10;;
57303;SDS011;43150;50.986;18.208;2022-12-29T05:24:00;19.00;;;9.90;;
57303;SDS011;43150;50.986;18.208;2022-12-29T05:26:25;17.40;;;9.50;;
57303;SDS011;43150;50.986;18.208;2022-12-29T05:28:53;15.90;;;8.60;;
57303;SDS011;43150;50.986;18.208;2022-12-29T05:31:19;15.70;;;7.90;;
57303;SDS011;43150;50.986;18.208;2022-12-29T05:33:45;13.70;;;6.90;;
57303;SDS011;43150;50.986;18.208;2022-12-29T05:36:10;8.80;;;5.20;;
57303;SDS011;43150;50.986;18.208;2022-12-29T05:38:36;9.80;;;5.40;;
57303;SDS011;43150;50.986;18.208;2022-12-29T05:41:02;8.60;;;4.50;;
57303;SDS011;43150;50.986;18.208;2022-12-29T05:43:29;10.70;;;5.00;;
57303;SDS011;43150;50.986;18.208;2022-12-29T05:45:54;6.30;;;3.70;;
57303;SDS011;43150;50.986;18.208;2022-12-29T05:48:20;13.40;;;5.60;;
57303;SDS011;43150;50.986;18.208;2022-12-29T05:50:49;18.40;;;7.80;;
57303;SDS011;43150;50.986;18.208;2022-12-29T05:53:19;13.30;;;6.50;;
57303;SDS011;43150;50.986;18.208;2022-12-29T05:55:47;12.40;;;6.00;;
57303;SDS011;43150;50.986;18.208;2022-12-29T05:58:14;14.40;;;7.30;;
57303;SDS011;43150;50.986;18.208;2022-12-29T06:00:39;11.50;;;5.60;;
57303;SDS011;43150;50.986;18.208;2022-12-29T06:03:05;9.20;;;5.10;;
57303;SDS011;43150;50.986;18.208;2022-12-29T06:05:30;6.10;;;4.60;;
57303;SDS011;43150;50.986;18.208;2022-12-29T06:07:56;6.70;;;4.10;;
57303;SDS011;43150;50.986;18.208;2022-12-29T06:10:21;10.30;;;5.20;;
57303;SDS011;43150;50.986;18.208;2022-12-29T06:12:47;9.20;;;5.30;;
57303;SDS011;43150;50.986;18.208;2022-12-29T06:15:13;9.10;;;5.10;;
57303;SDS011;43150;50.986;18.208;2022-12-29T06:17:39;8.70;;;6.00;;
57303;SDS011;43150;50.986;18.208;2022-12-29T06:20:10;8.50;;;4.80;;
57303;SDS011;43150;50.986;18.208;2022-12-29T06:22:35;12.70;;;6.90;;
57303;SDS011;43150;50.986;18.208;2022-12-29T06:25:01;8.90;;;4.90;;
57303;SDS011;43150;50.986;18.208;2022-12-29T06:27:27;10.50;;;6.70;;
57303;SDS011;43150;50.986;18.208;2022-12-29T06:29:53;16.60;;;6.70;;
57303;SDS011;43150;50.986;18.208;2022-12-29T06:32:19;19.60;;;8.70;;
57303;SDS011;43150;50.986;18.208;2022-12-29T06:34:44;16.20;;;7.50;;
57303;SDS011;43150;50.986;18.208;2022-12-29T06:37:10;20.30;;;9.60;;
57303;SDS011;43150;50.986;18.208;2022-12-29T06:39:40;15.70;;;7.50;;
57303;SDS011;43150;50.986;18.208;2022-12-29T06:42:15;12.30;;;7.00;;
57303;SDS011;43150;50.986;18.208;2022-12-29T06:44:41;17.70;;;9.00;;
57303;SDS011;43150;50.986;18.208;2022-12-29T06:47:08;18.30;;;10.60;;
57303;SDS011;43150;50.986;18.208;2022-12-29T06:49:35;16.50;;;8.70;;
57303;SDS011;43150;50.986;18.208;2022-12-29T06:52:02;13.20;;;7.20;;
57303;SDS011;43150;50.986;18.208;2022-12-29T06:54:32;12.60;;;8.10;;
57303;SDS011;43150;50.986;18.208;2022-12-29T06:57:01;9.90;;;6.30;;
57303;SDS011;43150;50.986;18.208;2022-12-29T06:59:27;9.50;;;5.50;;
57303;SDS011;43150;50.986;18.208;2022-12-29T07:01:52;7.70;;;5.30;;
57303;SDS011;43150;50.986;18.208;2022-12-29T07:04:18;9.50;;;4.60;;
57303;SDS011;43150;50.986;18.208;2022-12-29T07:06:44;24.00;;;8.70;;
57303;SDS011;43150;50.986;18.208;2022-12-29T07:09:09;18.50;;;7.60;;
57303;SDS011;43150;50.986;18.208;2022-12-29T07:11:35;18.60;;;8.30;;
57303;SDS011;43150;50.986;18.208;2022-12-29T07:14:05;11.00;;;6.00;;
57303;SDS011;43150;50.986;18.208;2022-12-29T07:16:31;10.70;;;5.40;;
57303;SDS011;43150;50.986;18.208;2022-12-29T07:18:59;10.80;;;5.60;;
57303;SDS011;43150;50.986;18.208;2022-12-29T07:21:25;7.30;;;5.20;;
57303;SDS011;43150;50.986;18.208;2022-12-29T07:23:50;9.00;;;6.00;;
57303;SDS011;43150;50.986;18.208;2022-12-29T07:26:16;10.10;;;5.10;;
57303;SDS011;43150;50.986;18.208;2022-12-29T07:28:44;9.50;;;5.10;;
57303;SDS011;43150;50.986;18.208;2022-12-29T07:31:14;11.00;;;5.50;;
57303;SDS011;43150;50.986;18.208;2022-12-29T07:33:41;11.50;;;5.50;;
57303;SDS011;43150;50.986;18.208;2022-12-29T07:36:06;34.90;;;11.10;;
57303;SDS011;43150;50.986;18.208;2022-12-29T07:38:32;56.20;;;22.80;;
57303;SDS011;43150;50.986;18.208;2022-12-29T07:41:02;38.70;;;18.80;;
57303;SDS011;43150;50.986;18.208;2022-12-29T07:43:28;23.10;;;13.20;;
57303;SDS011;43150;50.986;18.208;2022-12-29T07:45:53;14.70;;;10.00;;
57303;SDS011;43150;50.986;18.208;2022-12-29T07:48:19;10.00;;;7.20;;
57303;SDS011;43150;50.986;18.208;2022-12-29T07:50:45;11.60;;;7.90;;
57303;SDS011;43150;50.986;18.208;2022-12-29T07:53:11;9.70;;;6.70;;
57303;SDS011;43150;50.986;18.208;2022-12-29T07:55:36;10.00;;;7.20;;
57303;SDS011;43150;50.986;18.208;2022-12-29T07:58:02;19.40;;;13.90;;
57303;SDS011;43150;50.986;18.208;2022-12-29T08:00:28;17.00;;;11.00;;
57303;SDS011;43150;50.986;18.208;2022-12-29T08:02:54;24.20;;;16.10;;
57303;SDS011;43150;50.986;18.208;2022-12-29T08:05:19;21.00;;;14.60;;
57303;SDS011;43150;50.986;18.208;2022-12-29T08:07:45;15.20;;;11.30;;
57303;SDS011;43150;50.986;18.208;2022-12-29T08:10:11;12.80;;;10.50;;
57303;SDS011;43150;50.986;18.208;2022-12-29T08:12:41;13.50;;;10.40;;
57303;SDS011;43150;50.986;18.208;2022-12-29T08:15:10;10.20;;;7.20;;
57303;SDS011;43150;50.986;18.208;2022-12-29T08:17:35;12.80;;;9.40;;
57303;SDS011;43150;50.986;18.208;2022-12-29T08:20:01;15.40;;;10.50;;
57303;SDS011;43150;50.986;18.208;2022-12-29T08:22:27;17.30;;;12.90;;
57303;SDS011;43150;50.986;18.208;2022-12-29T08:24:53;24.60;;;15.90;;
57303;SDS011;43150;50.986;18.208;2022-12-29T08:27:18;14.10;;;9.50;;
57303;SDS011;43150;50.986;18.208;2022-12-29T08:29:44;13.90;;;9.50;;
57303;SDS011;43150;50.986;18.208;2022-12-29T08:32:09;16.30;;;10.50;;
57303;SDS011;43150;50.986;18.208;2022-12-29T08:34:35;10.40;;;7.30;;
57303;SDS011;43150;50.986;18.208;2022-12-29T08:37:00;10.80;;;7.60;;
57303;SDS011;43150;50.986;18.208;2022-12-29T08:39:26;14.70;;;9.50;;
57303;SDS011;43150;50.986;18.208;2022-12-29T08:41:52;26.90;;;14.70;;
57303;SDS011;43150;50.986;18.208;2022-12-29T08:44:17;29.00;;;16.20;;
57303;SDS011;43150;50.986;18.208;2022-12-29T08:46:43;27.20;;;16.60;;
57303;SDS011;43150;50.986;18.208;2022-12-29T08:49:08;13.90;;;9.40;;
57303;SDS011;43150;50.986;18.208;2022-12-29T08:51:34;14.10;;;7.40;;
57303;SDS011;43150;50.986;18.208;2022-12-29T08:53:59;9.50;;;5.90;;
57303;SDS011;43150;50.986;18.208;2022-12-29T08:56:25;8.90;;;7.00;;
57303;SDS011;43150;50.986;18.208;2022-12-29T08:58:52;9.90;;;7.80;;
57303;SDS011;43150;50.986;18.208;2022-12-29T09:01:18;10.60;;;6.50;;
57303;SDS011;43150;50.986;18.208;2022-12-29T09:03:44;15.60;;;8.40;;
57303;SDS011;43150;50.986;18.208;2022-12-29T09:06:10;23.70;;;16.70;;
57303;SDS011;43150;50.986;18.208;2022-12-29T09:08:35;28.00;;;13.30;;
57303;SDS011;43150;50.986;18.208;2022-12-29T09:11:34;20.90;;;15.30;;
57303;SDS011;43150;50.986;18.208;2022-12-29T09:13:53;15.80;;;9.10;;
57303;SDS011;43150;50.986;18.208;2022-12-29T09:16:20;15.60;;;9.20;;
57303;SDS011;43150;50.986;18.208;2022-12-29T09:18:46;14.70;;;8.90;;
57303;SDS011;43150;50.986;18.208;2022-12-29T09:21:13;13.50;;;8.30;;
57303;SDS011;43150;50.986;18.208;2022-12-29T09:23:39;11.10;;;8.30;;
57303;SDS011;43150;50.986;18.208;2022-12-29T09:26:04;10.20;;;7.40;;
57303;SDS011;43150;50.986;18.208;2022-12-29T09:28:31;9.30;;;5.30;;
57303;SDS011;43150;50.986;18.208;2022-12-29T09:30:57;12.20;;;7.20;;
57303;SDS011;43150;50.986;18.208;2022-12-29T09:33:23;11.00;;;8.30;;
57303;SDS011;43150;50.986;18.208;2022-12-29T09:35:56;11.60;;;9.20;;
57303;SDS011;43150;50.986;18.208;2022-12-29T09:38:23;11.70;;;8.50;;
57303;SDS011;43150;50.986;18.208;2022-12-29T09:40:52;13.80;;;10.50;;
57303;SDS011;43150;50.986;18.208;2022-12-29T09:48:31;9.80;;;7.70;;
57303;SDS011;43150;50.986;18.208;2022-12-29T09:50:59;10.40;;;8.20;;
57303;SDS011;43150;50.986;18.208;2022-12-29T09:53:27;11.80;;;9.00;;
57303;SDS011;43150;50.986;18.208;2022-12-29T09:55:55;12.10;;;8.20;;
57303;SDS011;43150;50.986;18.208;2022-12-29T09:58:32;10.90;;;8.10;;
57303;SDS011;43150;50.986;18.208;2022-12-29T10:03:26;11.40;;;7.50;;
57303;SDS011;43150;50.986;18.208;2022-12-29T10:11:16;9.50;;;6.60;;
57303;SDS011;43150;50.986;18.208;2022-12-29T10:14:20;10.30;;;7.60;;
57303;SDS011;43150;50.986;18.208;2022-12-29T10:19:51;9.30;;;7.10;;
57303;SDS011;43150;50.986;18.208;2022-12-29T10:24:50;7.00;;;5.40;;
57303;SDS011;43150;50.986;18.208;2022-12-29T10:27:17;9.60;;;5.80;;
57303;SDS011;43150;50.986;18.208;2022-12-29T10:29:44;8.30;;;5.60;;
57303;SDS011;43150;50.986;18.208;2022-12-29T10:32:29;10.60;;;5.30;;
57303;SDS011;43150;50.986;18.208;2022-12-29T10:34:58;10.10;;;7.10;;
57303;SDS011;43150;50.986;18.208;2022-12-29T10:37:40;14.80;;;9.30;;
57303;SDS011;43150;50.986;18.208;2022-12-29T10:42:57;11.70;;;8.10;;
57303;SDS011;43150;50.986;18.208;2022-12-29T10:45:24;13.20;;;9.80;;
57303;SDS011;43150;50.986;18.208;2022-12-29T10:47:52;12.70;;;8.30;;
57303;SDS011;43150;50.986;18.208;2022-12-29T10:50:18;11.40;;;7.80;;
57303;SDS011;43150;50.986;18.208;2022-12-29T10:52:44;15.70;;;10.10;;
57303;SDS011;43150;50.986;18.208;2022-12-29T10:55:24;16.70;;;11.50;;
57303;SDS011;43150;50.986;18.208;2022-12-29T10:57:53;17.50;;;11.30;;
57303;SDS011;43150;50.986;18.208;2022-12-29T11:00:20;13.70;;;9.00;;
57303;SDS011;43150;50.986;18.208;2022-12-29T11:08:02;16.70;;;11.00;;
57303;SDS011;43150;50.986;18.208;2022-12-29T11:10:38;17.10;;;11.70;;
57303;SDS011;43150;50.986;18.208;2022-12-29T11:13:16;23.40;;;19.30;;
57303;SDS011;43150;50.986;18.208;2022-12-29T11:15:43;18.70;;;11.90;;
57303;SDS011;43150;50.986;18.208;2022-12-29T11:20:47;24.60;;;13.60;;
57303;SDS011;43150;50.986;18.208;2022-12-29T11:28:37;9.30;;;7.10;;
57303;SDS011;43150;50.986;18.208;2022-12-29T11:31:04;16.50;;;10.40;;
57303;SDS011;43150;50.986;18.208;2022-12-29T11:33:30;12.10;;;8.30;;
57303;SDS011;43150;50.986;18.208;2022-12-29T11:36:21;9.60;;;6.80;;
57303;SDS011;43150;50.986;18.208;2022-12-29T11:38:46;10.70;;;7.80;;
57303;SDS011;43150;50.986;18.208;2022-12-29T11:41:13;12.60;;;8.80;;
57303;SDS011;43150;50.986;18.208;2022-12-29T11:43:44;11.30;;;7.60;;
57303;SDS011;43150;50.986;18.208;2022-12-29T11:46:20;16.10;;;9.60;;
57303;SDS011;43150;50.986;18.208;2022-12-29T11:48:48;11.00;;;8.30;;
57303;SDS011;43150;50.986;18.208;2022-12-29T11:51:20;12.30;;;9.30;;
57303;SDS011;43150;50.986;18.208;2022-12-29T11:53:50;12.50;;;9.10;;
57303;SDS011;43150;50.986;18.208;2022-12-29T11:56:19;14.30;;;9.70;;
57303;SDS011;43150;50.986;18.208;2022-12-29T11:58:49;13.40;;;10.50;;
57303;SDS011;43150;50.986;18.208;2022-12-29T12:03:48;10.80;;;7.80;;
57303;SDS011;43150;50.986;18.208;2022-12-29T12:06:19;24.40;;;14.10;;
57303;SDS011;43150;50.986;18.208;2022-12-29T12:08:47;39.00;;;19.70;;
57303;SDS011;43150;50.986;18.208;2022-12-29T12:13:43;31.70;;;16.40;;
57303;SDS011;43150;50.986;18.208;2022-12-29T12:16:24;21.90;;;13.60;;
57303;SDS011;43150;50.986;18.208;2022-12-29T12:18:53;20.00;;;15.40;;
57303;SDS011;43150;50.986;18.208;2022-12-29T12:24:00;14.10;;;10.90;;
57303;SDS011;43150;50.986;18.208;2022-12-29T12:26:39;13.00;;;9.90;;
57303;SDS011;43150;50.986;18.208;2022-12-29T12:29:10;12.60;;;9.00;;
57303;SDS011;43150;50.986;18.208;2022-12-29T12:34:29;11.50;;;8.80;;
57303;SDS011;43150;50.986;18.208;2022-12-29T12:37:06;15.50;;;12.10;;
57303;SDS011;43150;50.986;18.208;2022-12-29T12:42:09;17.50;;;12.00;;
57303;SDS011;43150;50.986;18.208;2022-12-29T12:59:46;28.00;;;19.90;;
57303;SDS011;43150;50.986;18.208;2022-12-29T13:07:28;20.00;;;15.70;;
57303;SDS011;43150;50.986;18.208;2022-12-29T13:19:51;24.50;;;18.70;;
57303;SDS011;43150;50.986;18.208;2022-12-29T13:24:50;17.90;;;12.60;;
57303;SDS011;43150;50.986;18.208;2022-12-29T13:37:09;20.60;;;11.30;;
57303;SDS011;43150;50.986;18.208;2022-12-29T13:39:37;28.90;;;20.50;;
57303;SDS011;43150;50.986;18.208;2022-12-29T13:42:04;22.80;;;13.20;;
57303;SDS011;43150;50.986;18.208;2022-12-29T13:44:34;17.70;;;13.40;;
57303;SDS011;43150;50.986;18.208;2022-12-29T13:47:21;20.90;;;10.50;;
57303;SDS011;43150;50.986;18.208;2022-12-29T13:49:49;21.10;;;11.90;;
57303;SDS011;43150;50.986;18.208;2022-12-29T13:52:18;19.10;;;13.20;;
57303;SDS011;43150;50.986;18.208;2022-12-29T13:57:41;21.70;;;12.40;;
57303;SDS011;43150;50.986;18.208;2022-12-29T14:00:12;18.20;;;10.90;;
57303;SDS011;43150;50.986;18.208;2022-12-29T14:02:44;13.00;;;10.70;;
57303;SDS011;43150;50.986;18.208;2022-12-29T14:07:48;20.80;;;12.40;;
57303;SDS011;43150;50.986;18.208;2022-12-29T14:12:51;17.30;;;9.80;;
57303;SDS011;43150;50.986;18.208;2022-12-29T14:15:21;20.20;;;11.50;;
57303;SDS011;43150;50.986;18.208;2022-12-29T14:18:22;27.30;;;15.30;;
57303;SDS011;43150;50.986;18.208;2022-12-29T14:20:47;22.00;;;13.50;;
57303;SDS011;43150;50.986;18.208;2022-12-29T14:23:17;24.20;;;12.80;;
57303;SDS011;43150;50.986;18.208;2022-12-29T14:26:09;22.90;;;13.00;;
57303;SDS011;43150;50.986;18.208;2022-12-29T14:28:37;16.50;;;9.80;;
57303;SDS011;43150;50.986;18.208;2022-12-29T14:36:35;14.70;;;8.20;;
57303;SDS011;43150;50.986;18.208;2022-12-29T14:39:02;16.40;;;8.40;;
57303;SDS011;43150;50.986;18.208;2022-12-29T14:41:32;14.40;;;8.30;;
57303;SDS011;43150;50.986;18.208;2022-12-29T14:44:01;13.60;;;8.50;;
57303;SDS011;43150;50.986;18.208;2022-12-29T14:49:20;15.50;;;10.50;;
57303;SDS011;43150;50.986;18.208;2022-12-29T14:51:47;19.40;;;10.60;;
57303;SDS011;43150;50.986;18.208;2022-12-29T14:56:59;19.70;;;11.90;;
57303;SDS011;43150;50.986;18.208;2022-12-29T14:59:26;27.50;;;16.30;;
57303;SDS011;43150;50.986;18.208;2022-12-29T15:01:52;30.90;;;20.00;;
57303;SDS011;43150;50.986;18.208;2022-12-29T15:04:25;22.90;;;14.30;;
57303;SDS011;43150;50.986;18.208;2022-12-29T15:07:02;23.80;;;12.90;;
57303;SDS011;43150;50.986;18.208;2022-12-29T15:09:45;27.80;;;15.60;;
57303;SDS011;43150;50.986;18.208;2022-12-29T15:12:19;29.50;;;20.50;;
57303;SDS011;43150;50.986;18.208;2022-12-29T15:14:53;34.20;;;19.60;;
57303;SDS011;43150;50.986;18.208;2022-12-29T15:17:23;26.80;;;15.40;;
57303;SDS011;43150;50.986;18.208;2022-12-29T15:19:49;29.80;;;15.50;;
57303;SDS011;43150;50.986;18.208;2022-12-29T15:22:15;34.10;;;15.70;;
57303;SDS011;43150;50.986;18.208;2022-12-29T15:24:41;35.40;;;18.40;;
57303;SDS011;43150;50.986;18.208;2022-12-29T15:27:10;30.60;;;18.20;;
57303;SDS011;43150;50.986;18.208;2022-12-29T15:29:42;35.90;;;19.70;;
57303;SDS011;43150;50.986;18.208;2022-12-29T15:32:21;41.00;;;21.20;;
57303;SDS011;43150;50.986;18.208;2022-12-29T15:34:48;26.70;;;16.70;;
57303;SDS011;43150;50.986;18.208;2022-12-29T15:37:18;29.50;;;14.90;;
57303;SDS011;43150;50.986;18.208;2022-12-29T15:39:44;23.50;;;12.40;;
57303;SDS011;43150;50.986;18.208;2022-12-29T15:45:05;21.80;;;12.10;;
57303;SDS011;43150;50.986;18.208;2022-12-29T15:47:31;29.40;;;16.40;;
57303;SDS011;43150;50.986;18.208;2022-12-29T15:50:05;35.10;;;18.30;;
57303;SDS011;43150;50.986;18.208;2022-12-29T15:52:33;36.50;;;18.50;;
57303;SDS011;43150;50.986;18.208;2022-12-29T15:54:58;20.50;;;10.90;;
57303;SDS011;43150;50.986;18.208;2022-12-29T15:57:26;16.00;;;10.10;;
57303;SDS011;43150;50.986;18.208;2022-12-29T15:59:51;13.90;;;8.90;;
57303;SDS011;43150;50.986;18.208;2022-12-29T16:02:20;16.10;;;10.60;;
57303;SDS011;43150;50.986;18.208;2022-12-29T16:04:49;17.30;;;10.70;;
57303;SDS011;43150;50.986;18.208;2022-12-29T16:07:23;17.60;;;11.40;;
57303;SDS011;43150;50.986;18.208;2022-12-29T16:09:56;16.70;;;12.30;;
57303;SDS011;43150;50.986;18.208;2022-12-29T16:12:23;20.20;;;13.60;;
57303;SDS011;43150;50.986;18.208;2022-12-29T16:14:54;23.00;;;14.70;;
57303;SDS011;43150;50.986;18.208;2022-12-29T16:17:22;15.80;;;10.10;;
57303;SDS011;43150;50.986;18.208;2022-12-29T16:20:02;20.10;;;13.00;;
57303;SDS011;43150;50.986;18.208;2022-12-29T16:22:32;18.90;;;11.90;;
57303;SDS011;43150;50.986;18.208;2022-12-29T16:25:04;26.90;;;15.60;;
57303;SDS011;43150;50.986;18.208;2022-12-29T16:27:32;20.20;;;12.80;;
57303;SDS011;43150;50.986;18.208;2022-12-29T16:30:03;26.00;;;13.40;;
57303;SDS011;43150;50.986;18.208;2022-12-29T16:32:30;17.50;;;10.90;;
57303;SDS011;43150;50.986;18.208;2022-12-29T16:37:40;20.30;;;12.10;;
57303;SDS011;43150;50.986;18.208;2022-12-29T16:42:48;17.80;;;11.30;;
57303;SDS011;43150;50.986;18.208;2022-12-29T16:50:34;14.40;;;8.80;;
57303;SDS011;43150;50.986;18.208;2022-12-29T16:53:00;15.70;;;9.30;;
57303;SDS011;43150;50.986;18.208;2022-12-29T16:55:27;14.60;;;8.90;;
57303;SDS011;43150;50.986;18.208;2022-12-29T16:57:53;14.60;;;10.30;;
57303;SDS011;43150;50.986;18.208;2022-12-29T17:00:24;18.70;;;10.50;;
57303;SDS011;43150;50.986;18.208;2022-12-29T17:02:51;15.70;;;9.50;;
57303;SDS011;43150;50.986;18.208;2022-12-29T17:05:18;14.60;;;8.70;;
57303;SDS011;43150;50.986;18.208;2022-12-29T17:07:44;16.40;;;9.20;;
57303;SDS011;43150;50.986;18.208;2022-12-29T17:10:10;17.70;;;11.60;;
57303;SDS011;43150;50.986;18.208;2022-12-29T17:12:37;19.90;;;12.70;;
57303;SDS011;43150;50.986;18.208;2022-12-29T17:15:13;19.90;;;12.10;;
57303;SDS011;43150;50.986;18.208;2022-12-29T17:17:46;28.10;;;15.20;;
57303;SDS011;43150;50.986;18.208;2022-12-29T17:20:19;19.20;;;11.10;;
57303;SDS011;43150;50.986;18.208;2022-12-29T17:22:46;24.20;;;13.40;;
57303;SDS011;43150;50.986;18.208;2022-12-29T17:25:19;54.00;;;24.70;;
57303;SDS011;43150;50.986;18.208;2022-12-29T17:30:31;19.30;;;12.00;;